Time;durP1;ratioP1;P1;durP2;ratioP2;P2;SDS_P1;SDS_P2;PMS_P1;PMS_P2;Temp;Humidity;BMP_temperature;BMP_pressure;BME280_temperature;BME280_humidity;BME280_pressure;Samples;Min_cycle;Max_cycle;Signal;HPM_P1;HPM_P2
2021/05/03 00:00:06;;;;;;;7.30;5.23;;;7.20;66.40;;;;;;5007332;28;20452;-45
2021/05/03 00:02:35;;;;;;;4.80;3.83;;;7.30;66.80;;;;;;5019412;28;20471;-44
2021/05/03 00:05:06;;;;;;;4.50;4.13;;;7.30;66.70;;;;;;5004119;28;20480;-44
2021/05/03 00:07:32;;;;;;;5.50;4.03;;;7.30;66.50;;;;;;4999779;28;20469;-44
2021/05/03 00:09:59;;;;;;;6.07;4.53;;;7.30;66.30;;;;;;5007238;28;20961;-44
2021/05/03 00:12:25;;;;;;;5.00;4.60;;;7.20;66.20;;;;;;5006798;28;20460;-45
2021/05/03 00:14:51;;;;;;;5.20;4.47;;;7.20;66.20;;;;;;5005710;28;20547;-44
2021/05/03 00:17:18;;;;;;;5.10;4.60;;;7.20;66.10;;;;;;5004857;28;20459;-45
2021/05/03 00:19:45;;;;;;;8.30;4.70;;;7.20;66.00;;;;;;5004733;28;20484;-45
2021/05/03 00:22:12;;;;;;;5.23;4.23;;;7.20;66.00;;;;;;5004841;28;20460;-44
2021/05/03 00:24:38;;;;;;;6.33;4.93;;;7.20;66.30;;;;;;5007120;28;20556;-44
2021/05/03 00:27:05;;;;;;;5.80;5.13;;;7.20;66.40;;;;;;5004411;28;20831;-44
2021/05/03 00:29:31;;;;;;;5.27;4.77;;;7.10;66.30;;;;;;4999326;28;20488;-44
2021/05/03 00:31:58;;;;;;;4.70;4.30;;;7.10;66.40;;;;;;5001612;28;20475;-44
2021/05/03 00:34:24;;;;;;;5.80;5.20;;;7.10;66.60;;;;;;5002833;28;20453;-44
2021/05/03 00:36:50;;;;;;;5.83;5.33;;;7.10;66.90;;;;;;5001813;28;20977;-45
2021/05/03 00:39:16;;;;;;;6.03;4.97;;;7.00;67.10;;;;;;5003296;28;20460;-44
2021/05/03 00:41:43;;;;;;;5.87;5.33;;;7.00;67.20;;;;;;5006107;28;20988;-44
2021/05/03 00:44:09;;;;;;;4.93;4.53;;;6.90;67.30;;;;;;5009242;28;20460;-44
2021/05/03 00:46:38;;;;;;;5.20;4.50;;;6.90;67.40;;;;;;5009248;28;20491;-45
2021/05/03 00:49:05;;;;;;;6.10;5.60;;;6.90;67.40;;;;;;5009005;28;20456;-44
2021/05/03 00:51:32;;;;;;;6.13;5.53;;;6.90;67.40;;;;;;5005995;28;20555;-44
2021/05/03 00:53:58;;;;;;;6.57;5.23;;;6.90;67.50;;;;;;5010225;28;20460;-44
2021/05/03 00:56:24;;;;;;;5.93;5.40;;;6.90;67.70;;;;;;5005608;28;20948;-44
2021/05/03 00:58:51;;;;;;;7.43;5.40;;;6.80;67.80;;;;;;5007333;28;20833;-44
2021/05/03 01:01:17;;;;;;;5.77;5.13;;;6.80;67.90;;;;;;5007573;28;20460;-45
2021/05/03 01:03:43;;;;;;;6.60;6.00;;;6.80;67.80;;;;;;5014882;28;20983;-44
2021/05/03 01:06:10;;;;;;;5.40;4.90;;;6.80;67.90;;;;;;5011871;28;20499;-44
2021/05/03 01:08:36;;;;;;;6.83;5.70;;;6.80;68.00;;;;;;5003658;28;20460;-44
2021/05/03 01:11:03;;;;;;;6.37;5.37;;;6.80;67.80;;;;;;5010246;28;20461;-44
2021/05/03 01:13:29;;;;;;;5.80;5.20;;;6.90;67.70;;;;;;5015559;28;20448;-44
2021/05/03 01:15:57;;;;;;;5.80;5.30;;;6.90;67.40;;;;;;5015220;28;20480;-44
2021/05/03 01:18:26;;;;;;;6.23;5.07;;;6.90;67.10;;;;;;5004950;28;20459;-44
2021/05/03 01:20:58;;;;;;;7.70;5.10;;;6.90;66.90;;;;;;5006609;28;20464;-44
2021/05/03 01:23:25;;;;;;;5.50;5.00;;;6.80;67.00;;;;;;5007498;28;20464;-44
2021/05/03 01:25:51;;;;;;;5.57;4.97;;;6.80;67.10;;;;;;5008875;28;20496;-45
2021/05/03 01:28:17;;;;;;;5.20;4.80;;;6.80;67.10;;;;;;5003528;28;20992;-44
2021/05/03 01:30:45;;;;;;;7.27;4.77;;;6.80;67.10;;;;;;5002439;28;20460;-44
2021/05/03 01:33:14;;;;;;;5.57;5.07;;;6.80;67.30;;;;;;5003743;28;20454;-44
2021/05/03 01:35:43;;;;;;;6.43;5.30;;;6.80;67.40;;;;;;5007337;28;20992;-44
2021/05/03 01:38:10;;;;;;;7.83;5.60;;;6.80;67.40;;;;;;5007070;28;20464;-45
2021/05/03 01:40:38;;;;;;;5.13;4.63;;;6.70;67.20;;;;;;5010668;28;20466;-44
2021/05/03 01:43:14;;;;;;;6.17;4.90;;;6.70;67.50;;;;;;5009012;28;20539;-44
2021/05/03 01:45:42;;;;;;;8.07;5.47;;;6.80;67.40;;;;;;5007303;28;20499;-44
2021/05/03 01:48:13;;;;;;;8.63;5.33;;;6.80;67.70;;;;;;5007915;28;21685;-44
2021/05/03 01:50:40;;;;;;;6.07;5.47;;;6.70;67.70;;;;;;5007330;28;20456;-45
2021/05/03 01:53:07;;;;;;;5.30;4.80;;;6.70;67.60;;;;;;5007790;28;20453;-44
2021/05/03 01:55:35;;;;;;;6.30;5.70;;;6.70;67.60;;;;;;5025460;28;20830;-44
2021/05/03 01:58:04;;;;;;;6.30;5.80;;;6.70;67.50;;;;;;5039408;28;20496;-44
2021/05/03 02:00:32;;;;;;;5.60;4.60;;;6.60;67.60;;;;;;5004182;28;20458;-44
2021/05/03 02:02:58;;;;;;;5.83;5.10;;;6.60;67.40;;;;;;5010421;28;20542;-44
2021/05/03 02:05:27;;;;;;;5.73;4.80;;;6.60;67.50;;;;;;5009762;28;20511;-44
2021/05/03 02:08:04;;;;;;;6.40;5.30;;;6.60;67.70;;;;;;5003834;28;20468;-44
2021/05/03 02:10:33;;;;;;;6.43;4.83;;;6.50;67.60;;;;;;5004872;28;21055;-44
2021/05/03 02:13:00;;;;;;;8.23;5.20;;;6.50;68.00;;;;;;5006274;28;20454;-44
2021/05/03 02:15:30;;;;;;;6.03;5.23;;;6.50;68.00;;;;;;5022110;28;20487;-44
2021/05/03 02:17:57;;;;;;;5.20;4.73;;;6.50;68.10;;;;;;5008323;28;20988;-44
2021/05/03 02:20:23;;;;;;;5.87;5.30;;;6.50;68.00;;;;;;5002613;28;20470;-44
2021/05/03 02:22:50;;;;;;;5.90;5.40;;;6.50;68.30;;;;;;5022339;28;20945;-44
2021/05/03 02:25:16;;;;;;;9.50;4.93;;;6.50;68.30;;;;;;5004681;28;20848;-44
2021/05/03 02:27:47;;;;;;;5.23;4.83;;;6.40;68.40;;;;;;5007021;28;20452;-44
2021/05/03 02:30:15;;;;;;;5.00;4.60;;;6.40;68.50;;;;;;5007224;28;20463;-44
2021/05/03 02:32:42;;;;;;;8.20;5.47;;;6.30;68.70;;;;;;5002219;28;20466;-44
2021/05/03 02:35:15;;;;;;;5.93;4.93;;;6.30;68.50;;;;;;5005734;28;20448;-44
2021/05/03 02:37:46;;;;;;;7.00;5.47;;;6.30;68.20;;;;;;5003127;28;20456;-44
2021/05/03 02:40:12;;;;;;;5.00;4.50;;;6.30;68.00;;;;;;5009809;28;20479;-44
2021/05/03 02:42:39;;;;;;;6.17;5.67;;;6.30;68.20;;;;;;5008013;28;20468;-44
2021/05/03 02:45:06;;;;;;;5.30;4.90;;;6.20;68.40;;;;;;5003509;28;20463;-44
2021/05/03 02:47:32;;;;;;;5.23;4.73;;;6.20;68.60;;;;;;5004135;28;20468;-44
2021/05/03 02:49:59;;;;;;;5.33;4.83;;;6.10;68.80;;;;;;5005411;28;20875;-44
2021/05/03 02:52:25;;;;;;;6.40;5.27;;;6.10;68.90;;;;;;5006027;28;20461;-44
2021/05/03 02:54:52;;;;;;;5.60;5.10;;;6.10;69.00;;;;;;5007281;28;20445;-45
2021/05/03 02:57:18;;;;;;;4.97;4.50;;;6.10;69.10;;;;;;5004727;28;20485;-44
2021/05/03 02:59:45;;;;;;;6.20;5.70;;;6.00;69.20;;;;;;5006849;28;20555;-45
2021/05/03 03:02:12;;;;;;;6.27;5.67;;;6.00;69.50;;;;;;5005128;28;20543;-46
2021/05/03 03:04:38;;;;;;;8.10;5.63;;;6.00;69.60;;;;;;5005316;28;20476;-46
2021/05/03 03:07:04;;;;;;;5.50;4.90;;;6.00;69.60;;;;;;5007364;28;21039;-46
2021/05/03 03:09:30;;;;;;;7.53;6.17;;;6.00;69.70;;;;;;5002429;28;20515;-46
2021/05/03 03:11:59;;;;;;;5.40;5.00;;;5.90;69.70;;;;;;4989727;28;20468;-46
2021/05/03 03:14:26;;;;;;;10.03;5.63;;;5.90;69.90;;;;;;5005615;28;20572;-46
2021/05/03 03:16:52;;;;;;;6.03;5.40;;;5.90;69.90;;;;;;5006352;28;20490;-46
2021/05/03 03:19:18;;;;;;;6.73;6.03;;;5.90;69.90;;;;;;5005895;28;20964;-46
2021/05/03 03:21:45;;;;;;;5.90;4.83;;;5.90;69.90;;;;;;5006677;28;20891;-46
2021/05/03 03:24:12;;;;;;;6.23;5.63;;;5.80;70.00;;;;;;5008028;28;20462;-46
2021/05/03 03:26:38;;;;;;;8.90;5.63;;;5.80;70.00;;;;;;5005289;28;20484;-46
2021/05/03 03:29:05;;;;;;;6.20;5.60;;;5.70;70.10;;;;;;5007693;28;20458;-46
2021/05/03 03:31:31;;;;;;;7.07;5.77;;;5.70;70.30;;;;;;5018971;28;20552;-46
2021/05/03 03:33:57;;;;;;;6.40;5.77;;;5.70;70.30;;;;;;5002966;28;20552;-46
2021/05/03 03:36:24;;;;;;;8.57;5.53;;;5.70;70.40;;;;;;5007419;28;20471;-46
2021/05/03 03:38:50;;;;;;;6.70;6.10;;;5.70;70.60;;;;;;5004173;28;20456;-46
2021/05/03 03:41:16;;;;;;;8.80;6.30;;;5.70;70.60;;;;;;5006835;28;20460;-46
2021/05/03 03:43:45;;;;;;;7.13;6.43;;;5.70;70.70;;;;;;5006766;28;20468;-46
2021/05/03 03:46:11;;;;;;;7.70;6.17;;;5.60;70.70;;;;;;5008403;28;21044;-46
2021/05/03 03:48:38;;;;;;;6.20;5.60;;;5.60;70.80;;;;;;5003861;28;20463;-46
2021/05/03 03:51:06;;;;;;;7.40;6.67;;;5.60;70.70;;;;;;5008031;28;20804;-46
2021/05/03 03:53:33;;;;;;;6.03;5.43;;;5.60;70.70;;;;;;5008375;28;20460;-46
2021/05/03 03:55:59;;;;;;;7.63;5.80;;;5.50;70.80;;;;;;5003780;28;20472;-46
2021/05/03 03:58:25;;;;;;;7.73;6.43;;;5.50;70.90;;;;;;5006128;28;20543;-46
2021/05/03 04:00:52;;;;;;;6.73;6.20;;;5.50;71.00;;;;;;5006350;28;20828;-46
2021/05/03 04:03:21;;;;;;;9.23;5.43;;;5.50;71.00;;;;;;5008147;28;20997;-46
2021/05/03 04:08:33;;;;;;;6.17;5.57;;;5.40;71.00;;;;;;5002693;28;20452;-46
2021/05/03 04:14:13;;;;;;;6.83;6.07;;;5.40;71.10;;;;;;5000030;28;20467;-46
2021/05/03 04:24:27;;;;;;;6.50;5.90;;;5.30;71.30;;;;;;5007898;28;20520;-45
2021/05/03 04:26:53;;;;;;;10.10;6.27;;;5.30;71.40;;;;;;5005360;28;20476;-45
2021/05/03 04:29:21;;;;;;;7.10;6.50;;;5.30;71.60;;;;;;5004441;28;20460;-46
2021/05/03 04:31:49;;;;;;;6.30;5.80;;;5.30;71.60;;;;;;5003144;28;20927;-46
2021/05/03 04:34:15;;;;;;;8.40;7.60;;;5.30;71.60;;;;;;5002101;28;20826;-46
2021/05/03 04:36:41;;;;;;;9.80;7.53;;;5.30;71.80;;;;;;5005057;28;20471;-46
2021/05/03 04:39:08;;;;;;;11.57;9.47;;;5.30;71.90;;;;;;5004917;28;20495;-45
2021/05/03 04:41:34;;;;;;;11.23;7.93;;;5.30;72.00;;;;;;5005090;28;20460;-45
2021/05/03 04:44:00;;;;;;;8.93;8.03;;;5.30;72.20;;;;;;5004678;28;20464;-45
2021/05/03 04:46:26;;;;;;;11.27;8.67;;;5.30;72.20;;;;;;5005521;28;20846;-45
2021/05/03 04:48:53;;;;;;;10.83;7.97;;;5.30;72.30;;;;;;5008742;28;20952;-45
2021/05/03 04:51:19;;;;;;;13.13;8.87;;;5.30;72.50;;;;;;5007048;28;20456;-45
2021/05/03 04:53:45;;;;;;;11.40;8.30;;;5.30;72.50;;;;;;5006676;28;21025;-45
2021/05/03 04:56:11;;;;;;;11.00;8.27;;;5.30;72.60;;;;;;5009796;28;20474;-45
2021/05/03 04:58:38;;;;;;;10.20;8.50;;;5.30;72.70;;;;;;5005159;28;21003;-45
2021/05/03 05:01:07;;;;;;;14.00;9.67;;;5.40;72.80;;;;;;5008925;28;20610;-45
2021/05/03 05:03:33;;;;;;;9.77;8.37;;;5.40;72.80;;;;;;5004565;28;20472;-45
2021/05/03 05:05:59;;;;;;;13.93;8.33;;;5.40;72.80;;;;;;5005283;28;20484;-45
2021/05/03 05:08:26;;;;;;;12.33;8.90;;;5.50;72.90;;;;;;5010457;28;20459;-45
2021/05/03 05:10:52;;;;;;;9.73;8.47;;;5.50;73.00;;;;;;5010527;28;20454;-45
2021/05/03 05:13:19;;;;;;;10.13;7.50;;;5.50;73.00;;;;;;5007207;28;20461;-45
2021/05/03 05:15:45;;;;;;;8.70;7.50;;;5.60;72.90;;;;;;5007262;28;20921;-45
2021/05/03 05:18:11;;;;;;;10.40;7.90;;;5.70;72.70;;;;;;5011464;28;20448;-45
2021/05/03 05:20:38;;;;;;;10.00;8.10;;;5.70;72.70;;;;;;5034054;28;20457;-45
2021/05/03 05:23:05;;;;;;;8.63;7.93;;;5.80;72.70;;;;;;5007126;28;20904;-45
2021/05/03 05:25:31;;;;;;;12.67;8.50;;;5.80;72.60;;;;;;5009285;28;20449;-45
2021/05/03 05:27:57;;;;;;;10.60;8.00;;;5.90;72.70;;;;;;5010106;28;20445;-45
2021/05/03 05:30:24;;;;;;;9.03;8.13;;;6.00;72.60;;;;;;5015133;28;20893;-45
2021/05/03 05:32:53;;;;;;;10.37;7.97;;;6.10;72.20;;;;;;5013698;28;20579;-45
2021/05/03 05:35:19;;;;;;;9.00;8.10;;;6.20;71.90;;;;;;5013921;28;20452;-45
2021/05/03 05:37:45;;;;;;;10.47;8.27;;;6.20;71.90;;;;;;5010601;28;20464;-45
2021/05/03 05:40:11;;;;;;;8.10;7.30;;;6.30;71.70;;;;;;5011937;28;20464;-45
2021/05/03 05:42:38;;;;;;;9.03;8.07;;;6.30;71.40;;;;;;5010400;28;20495;-45
2021/05/03 05:45:05;;;;;;;8.70;7.80;;;6.40;71.20;;;;;;5008132;28;20563;-45
2021/05/03 05:47:31;;;;;;;8.20;7.40;;;6.40;71.30;;;;;;5011813;28;20546;-46
2021/05/03 05:49:57;;;;;;;8.27;7.43;;;6.50;70.70;;;;;;5013017;28;20518;-46
2021/05/03 05:52:24;;;;;;;11.80;8.60;;;6.50;70.90;;;;;;5008290;28;20463;-46
2021/05/03 05:54:50;;;;;;;12.90;7.93;;;6.60;71.00;;;;;;5009996;28;21024;-45
2021/05/03 05:57:16;;;;;;;10.30;7.90;;;6.60;70.90;;;;;;5019899;28;20456;-45
2021/05/03 05:59:42;;;;;;;7.70;6.97;;;6.70;70.80;;;;;;5007447;28;20469;-45
2021/05/03 06:02:09;;;;;;;8.13;7.33;;;6.80;70.40;;;;;;5012148;28;20455;-46
2021/05/03 06:04:37;;;;;;;9.90;8.10;;;7.00;70.00;;;;;;5014578;28;20460;-46
2021/05/03 06:07:03;;;;;;;10.00;8.30;;;7.10;68.70;;;;;;5011057;28;20488;-46
2021/05/03 06:09:49;;;;;;;9.90;8.90;;;7.10;68.80;;;;;;5013729;28;20488;-46
2021/05/03 06:12:16;;;;;;;8.50;7.30;;;7.20;68.50;;;;;;5013620;28;20453;-46
2021/05/03 06:14:42;;;;;;;8.97;8.07;;;7.30;68.10;;;;;;5014487;28;20459;-46
2021/05/03 06:17:09;;;;;;;15.13;7.63;;;7.30;67.70;;;;;;5007735;28;20849;-45
2021/05/03 06:19:36;;;;;;;7.83;7.13;;;7.40;67.30;;;;;;5010354;28;20971;-45
2021/05/03 06:22:02;;;;;;;8.87;7.97;;;7.60;66.60;;;;;;5013074;28;20467;-45
2021/05/03 06:24:29;;;;;;;10.97;7.27;;;7.70;66.50;;;;;;5012856;28;20457;-45
2021/05/03 06:26:55;;;;;;;8.60;7.70;;;7.80;66.00;;;;;;5011576;28;20899;-45
2021/05/03 06:29:21;;;;;;;9.90;7.90;;;7.90;66.20;;;;;;5009357;28;20460;-45
2021/05/03 06:31:48;;;;;;;10.63;7.83;;;8.00;66.30;;;;;;5009684;28;21000;-45
2021/05/03 06:34:14;;;;;;;8.93;7.40;;;8.00;66.10;;;;;;5011032;28;20456;-46
2021/05/03 06:36:40;;;;;;;10.53;8.67;;;8.20;65.80;;;;;;5025561;28;20459;-46
2021/05/03 06:39:06;;;;;;;8.90;8.10;;;8.30;65.20;;;;;;5012444;28;20467;-46
2021/05/03 06:41:33;;;;;;;9.60;7.40;;;8.50;64.40;;;;;;5009238;28;20465;-46
2021/05/03 06:44:00;;;;;;;8.33;7.53;;;8.60;64.10;;;;;;5014156;28;20471;-46
2021/05/03 06:46:28;;;;;;;7.70;6.90;;;8.70;64.00;;;;;;5012155;28;20484;-46
2021/05/03 06:48:54;;;;;;;9.17;8.30;;;8.90;63.80;;;;;;5010104;28;20469;-46
2021/05/03 06:51:20;;;;;;;8.97;7.40;;;9.10;63.70;;;;;;5006332;28;20456;-46
2021/05/03 06:53:53;;;;;;;7.70;7.00;;;9.30;63.30;;;;;;5005812;28;21045;-46
2021/05/03 06:56:20;;;;;;;7.57;6.87;;;9.50;61.90;;;;;;5011354;28;20461;-46
2021/05/03 06:58:46;;;;;;;8.93;7.10;;;9.60;61.00;;;;;;5005772;28;20965;-46
2021/05/03 07:01:14;;;;;;;9.57;7.37;;;9.80;60.60;;;;;;5013322;28;20823;-46
2021/05/03 07:03:42;;;;;;;7.23;6.50;;;9.90;60.00;;;;;;5002055;28;21098;-46
2021/05/03 07:06:08;;;;;;;10.40;7.10;;;10.00;59.70;;;;;;5003258;28;20487;-46
2021/05/03 07:08:34;;;;;;;9.00;7.77;;;10.20;59.50;;;;;;5009219;28;20503;-46
2021/05/03 07:11:05;;;;;;;9.73;6.23;;;10.40;59.00;;;;;;5005230;28;20490;-46
2021/05/03 07:13:31;;;;;;;7.33;6.37;;;10.50;58.60;;;;;;5008468;28;20449;-46
2021/05/03 07:16:00;;;;;;;8.07;6.33;;;10.50;57.80;;;;;;5011572;28;20481;-46
2021/05/03 07:18:26;;;;;;;7.33;6.53;;;10.60;58.10;;;;;;5005754;28;20988;-46
2021/05/03 07:20:52;;;;;;;6.87;6.30;;;10.70;57.60;;;;;;5007655;28;20481;-45
2021/05/03 07:23:19;;;;;;;7.93;7.07;;;10.80;57.60;;;;;;4999536;28;20547;-45
2021/05/03 07:25:45;;;;;;;6.70;6.10;;;11.00;57.30;;;;;;5010341;28;20953;-45
2021/05/03 07:28:11;;;;;;;7.90;6.43;;;11.10;56.40;;;;;;5002478;28;20458;-45
2021/05/03 07:30:38;;;;;;;6.90;6.30;;;11.20;55.90;;;;;;5005746;28;20460;-45
2021/05/03 07:33:04;;;;;;;7.73;7.00;;;11.30;55.70;;;;;;5004571;28;20476;-45
2021/05/03 07:35:30;;;;;;;8.27;6.97;;;11.40;55.50;;;;;;5003585;28;20469;-45
2021/05/03 07:37:57;;;;;;;7.40;6.70;;;11.60;55.40;;;;;;5006845;28;20835;-45
2021/05/03 07:40:23;;;;;;;7.07;6.33;;;11.80;55.10;;;;;;5008466;28;20820;-45
2021/05/03 07:42:49;;;;;;;10.30;7.90;;;12.00;54.60;;;;;;5006124;28;20456;-46
2021/05/03 07:45:17;;;;;;;7.47;6.10;;;12.10;53.70;;;;;;5010195;28;20839;-46
2021/05/03 07:47:45;;;;;;;7.70;6.80;;;12.30;53.30;;;;;;5012041;28;21004;-46
2021/05/03 07:50:12;;;;;;;7.97;7.17;;;12.30;52.90;;;;;;5007614;28;20455;-46
2021/05/03 07:52:39;;;;;;;7.80;6.60;;;12.40;52.80;;;;;;5006339;28;20988;-46
2021/05/03 07:55:10;;;;;;;7.60;6.47;;;12.60;52.90;;;;;;5004507;28;20456;-46
2021/05/03 07:57:36;;;;;;;9.37;6.50;;;12.70;52.60;;;;;;5004473;28;20475;-46
2021/05/03 08:00:04;;;;;;;8.30;5.90;;;12.80;52.10;;;;;;5003017;28;20468;-46
2021/05/03 08:02:30;;;;;;;7.63;6.20;;;12.90;51.20;;;;;;5005651;28;20977;-46
2021/05/03 08:04:57;;;;;;;6.47;5.87;;;13.00;50.70;;;;;;5006777;28;20976;-45
2021/05/03 08:07:23;;;;;;;7.40;6.13;;;13.00;50.80;;;;;;5011132;28;20493;-45
2021/05/03 08:09:50;;;;;;;8.80;6.67;;;13.00;51.50;;;;;;5006856;28;20441;-45
2021/05/03 08:12:16;;;;;;;8.37;6.80;;;13.10;52.00;;;;;;5014209;28;20551;-45
2021/05/03 08:14:45;;;;;;;9.50;6.90;;;13.20;52.10;;;;;;5008792;28;20463;-45
2021/05/03 08:17:14;;;;;;;7.37;6.67;;;13.40;50.70;;;;;;5002081;28;20483;-45
2021/05/03 08:19:40;;;;;;;7.70;6.73;;;13.50;49.20;;;;;;5010010;28;20517;-45
2021/05/03 08:22:07;;;;;;;7.63;6.90;;;13.60;49.40;;;;;;5010759;28;20542;-45
2021/05/03 08:24:35;;;;;;;11.23;8.67;;;13.70;48.70;;;;;;5012800;28;20467;-45
2021/05/03 08:27:02;;;;;;;7.60;6.17;;;13.80;48.70;;;;;;5002450;28;20567;-45
2021/05/03 08:29:29;;;;;;;9.17;7.40;;;14.00;48.10;;;;;;5004608;28;20553;-45
2021/05/03 08:31:56;;;;;;;8.43;7.40;;;14.10;48.60;;;;;;5009102;28;20710;-45
2021/05/03 08:34:24;;;;;;;11.40;7.33;;;14.30;48.20;;;;;;5005507;28;20728;-45
2021/05/03 08:36:54;;;;;;;8.43;7.57;;;14.50;48.40;;;;;;5011950;28;20456;-45
2021/05/03 08:39:24;;;;;;;8.57;7.67;;;14.60;47.70;;;;;;4999698;28;20816;-45
2021/05/03 08:41:52;;;;;;;8.90;7.10;;;14.70;47.60;;;;;;5013318;28;20459;-45
2021/05/03 08:44:20;;;;;;;9.47;6.50;;;14.90;46.90;;;;;;5011911;28;20526;-45
2021/05/03 08:46:46;;;;;;;8.63;6.80;;;15.00;46.60;;;;;;5011685;28;20819;-45
2021/05/03 08:49:26;;;;;;;9.23;7.80;;;15.20;46.00;;;;;;5011698;28;20870;-45
2021/05/03 08:54:41;;;;;;;7.60;6.27;;;15.70;45.00;;;;;;5017209;28;20518;-45
2021/05/03 08:57:11;;;;;;;7.53;5.60;;;16.00;43.70;;;;;;5005610;28;21027;-45
2021/05/03 08:59:40;;;;;;;10.30;7.03;;;16.20;42.70;;;;;;5016015;28;21027;-45
2021/05/03 09:02:08;;;;;;;8.47;6.90;;;16.30;43.00;;;;;;5011248;28;20506;-45
2021/05/03 09:04:35;;;;;;;7.30;6.60;;;16.40;42.80;;;;;;5010982;28;20460;-45
2021/05/03 09:07:05;;;;;;;7.87;6.60;;;16.70;42.60;;;;;;5013998;28;20836;-45
2021/05/03 09:09:40;;;;;;;8.90;7.97;;;17.10;43.30;;;;;;5009106;28;20468;-45
2021/05/03 09:12:06;;;;;;;7.37;6.67;;;17.40;41.70;;;;;;5012966;28;20451;-45
2021/05/03 09:14:49;;;;;;;8.50;6.30;;;17.50;40.80;;;;;;5011413;28;21167;-45
2021/05/03 09:17:39;;;;;;;11.03;7.27;;;17.20;40.90;;;;;;5023447;28;21472;-44
2021/05/03 09:20:17;;;;;;;7.07;6.40;;;16.90;41.00;;;;;;5015061;28;21055;-46
2021/05/03 09:22:55;;;;;;;10.17;6.47;;;16.80;41.70;;;;;;5015093;28;20452;-46
2021/05/03 09:28:14;;;;;;;11.53;7.30;;;17.80;39.50;;;;;;5023017;28;20503;-46
2021/05/03 09:30:43;;;;;;;6.70;6.00;;;18.00;37.90;;;;;;5015523;28;20493;-46
2021/05/03 09:33:16;;;;;;;7.67;5.80;;;18.30;38.40;;;;;;5015662;28;20448;-46
2021/05/03 09:36:09;;;;;;;9.60;6.00;;;18.70;38.00;;;;;;5008551;28;20471;-47
2021/05/03 09:38:39;;;;;;;6.90;6.20;;;19.10;37.60;;;;;;5023794;28;20466;-45
2021/05/03 09:41:19;;;;;;;8.73;6.13;;;19.60;35.10;;;;;;5019759;28;20443;-45
2021/05/03 09:43:55;;;;;;;7.80;7.00;;;20.20;35.40;;;;;;5024411;28;20489;-45
2021/05/03 09:46:48;;;;;;;6.57;5.97;;;20.60;34.80;;;;;;5012909;28;20483;-46
2021/05/03 09:49:18;;;;;;;6.70;5.03;;;21.10;33.80;;;;;;5026800;28;20464;-46
2021/05/03 09:51:50;;;;;;;7.00;4.80;;;21.40;33.00;;;;;;5002533;28;20452;-46
2021/05/03 09:54:28;;;;;;;6.80;5.50;;;21.80;31.80;;;;;;5020176;28;20608;-45
2021/05/03 09:57:07;;;;;;;5.10;4.70;;;22.00;31.70;;;;;;5014172;28;20458;-45
2021/05/03 09:59:48;;;;;;;7.53;5.30;;;22.10;31.60;;;;;;5015835;28;20472;-45
2021/05/03 10:02:26;;;;;;;6.00;5.40;;;22.00;31.00;;;;;;5030058;28;20460;-46
2021/05/03 10:04:59;;;;;;;7.00;5.50;;;21.90;30.60;;;;;;5008117;28;20551;-45
2021/05/03 10:07:28;;;;;;;7.03;5.80;;;21.90;31.00;;;;;;5019194;28;20496;-46
2021/05/03 10:12:33;;;;;;;6.23;5.73;;;21.50;32.00;;;;;;5019196;28;20459;-46
2021/05/03 10:15:03;;;;;;;7.00;6.23;;;21.40;31.50;;;;;;5000970;28;20879;-47
2021/05/03 10:17:31;;;;;;;5.83;5.23;;;20.80;32.20;;;;;;5015351;28;20460;-45
2021/05/03 10:19:59;;;;;;;10.10;7.10;;;20.10;33.70;;;;;;5009168;28;20456;-45
2021/05/03 10:22:29;;;;;;;7.03;6.20;;;19.50;35.60;;;;;;5016852;28;20460;-45
2021/05/03 10:24:58;;;;;;;7.20;5.20;;;18.90;36.30;;;;;;5022873;28;20782;-45
2021/05/03 10:27:25;;;;;;;7.70;5.97;;;18.20;37.30;;;;;;5010395;28;20576;-45
2021/05/03 10:30:26;;;;;;;6.93;5.60;;;17.70;39.20;;;;;;5013700;28;20458;-45
2021/05/03 10:33:00;;;;;;;6.53;5.83;;;17.30;41.50;;;;;;5008222;28;21151;-45
2021/05/03 10:35:29;;;;;;;5.60;5.10;;;17.50;40.20;;;;;;5010303;28;20968;-46
2021/05/03 10:37:57;;;;;;;7.50;6.03;;;17.80;38.80;;;;;;5019373;28;21256;-46
2021/05/03 10:40:23;;;;;;;5.87;5.33;;;18.00;38.60;;;;;;5013412;28;20547;-45
2021/05/03 10:43:02;;;;;;;7.00;6.17;;;18.20;38.40;;;;;;5014804;28;20467;-45
2021/05/03 10:51:48;;;;;;;4.80;4.40;;;17.90;37.90;;;;;;5017289;28;20487;-45
2021/05/03 10:54:42;;;;;;;6.50;4.33;;;17.80;37.40;;;;;;5016253;28;20544;-45
2021/05/03 10:57:29;;;;;;;4.60;4.00;;;18.00;35.90;;;;;;5009255;28;20469;-45
2021/05/03 10:59:58;;;;;;;7.90;4.40;;;18.30;36.70;;;;;;5010093;28;20522;-45
2021/05/03 11:02:43;;;;;;;4.40;4.00;;;18.40;35.60;;;;;;5023563;28;20968;-45
2021/05/03 11:05:17;;;;;;;6.40;4.80;;;18.30;35.90;;;;;;5005363;28;20472;-45
2021/05/03 11:08:03;;;;;;;6.10;3.90;;;18.30;36.00;;;;;;5008857;28;20495;-45
2021/05/03 11:10:59;;;;;;;8.13;4.70;;;18.20;36.20;;;;;;5010953;28;20467;-46
2021/05/03 11:13:40;;;;;;;4.10;3.73;;;18.20;36.60;;;;;;5012418;28;20468;-45
2021/05/03 11:16:33;;;;;;;4.37;3.67;;;18.00;36.60;;;;;;5010028;28;20476;-45
2021/05/03 11:19:01;;;;;;;5.60;3.90;;;18.00;36.30;;;;;;5014901;28;20457;-45
2021/05/03 11:21:46;;;;;;;4.13;3.23;;;17.90;35.30;;;;;;5018541;28;20519;-45
2021/05/03 11:24:15;;;;;;;4.70;3.53;;;17.60;36.50;;;;;;5014640;28;20460;-46
2021/05/03 11:26:51;;;;;;;4.30;3.50;;;17.50;36.20;;;;;;5007714;28;20485;-46
2021/05/03 11:29:21;;;;;;;4.00;3.70;;;17.40;36.40;;;;;;5009746;28;20447;-45
2021/05/03 11:31:47;;;;;;;4.80;3.80;;;17.30;37.50;;;;;;5006739;28;20494;-46
2021/05/03 11:34:25;;;;;;;4.23;3.83;;;17.40;37.90;;;;;;5010061;28;20468;-46
2021/05/03 11:37:04;;;;;;;4.83;3.17;;;17.50;37.90;;;;;;5013147;28;20456;-46
2021/05/03 11:39:58;;;;;;;3.77;3.40;;;17.60;36.90;;;;;;5014467;28;20836;-46
2021/05/03 11:45:07;;;;;;;4.67;4.27;;;17.50;37.70;;;;;;5018208;28;20458;-45
2021/05/03 11:47:38;;;;;;;6.23;3.20;;;17.60;37.60;;;;;;5013289;28;20498;-47
2021/05/03 11:50:05;;;;;;;7.23;4.53;;;17.80;36.40;;;;;;5005021;28;21160;-45
2021/05/03 11:52:34;;;;;;;3.97;3.57;;;17.80;36.30;;;;;;5007216;28;20856;-46
2021/05/03 11:55:09;;;;;;;4.00;3.50;;;17.70;36.30;;;;;;5009676;28;20527;-46
2021/05/03 11:57:40;;;;;;;5.20;3.87;;;17.50;37.80;;;;;;5014769;28;20462;-45
2021/05/03 12:00:09;;;;;;;4.30;4.00;;;17.40;37.10;;;;;;5012770;28;20553;-46
2021/05/03 12:02:35;;;;;;;6.90;3.90;;;17.40;38.10;;;;;;5011407;28;20930;-46
2021/05/03 12:05:14;;;;;;;3.37;3.07;;;17.40;38.20;;;;;;4992559;28;20555;-46
2021/05/03 12:07:42;;;;;;;3.23;2.90;;;17.40;36.40;;;;;;5005502;28;20488;-45
2021/05/03 12:10:14;;;;;;;4.30;3.90;;;17.40;36.50;;;;;;5002935;28;20460;-46
2021/05/03 12:12:43;;;;;;;3.80;3.27;;;17.50;38.40;;;;;;5024069;28;20549;-46
2021/05/03 12:15:25;;;;;;;3.60;3.30;;;17.60;37.70;;;;;;5021415;28;20499;-46
2021/05/03 12:17:53;;;;;;;6.13;3.97;;;17.60;36.70;;;;;;5033821;28;20538;-45
2021/05/03 12:20:22;;;;;;;3.97;3.50;;;17.60;36.80;;;;;;5018541;28;20556;-45
2021/05/03 12:23:03;;;;;;;4.60;3.47;;;17.60;38.20;;;;;;5012001;28;20471;-45
2021/05/03 12:25:42;;;;;;;3.67;3.30;;;17.70;37.80;;;;;;5029700;28;20461;-43
2021/05/03 12:28:11;;;;;;;4.43;4.03;;;17.80;38.40;;;;;;5017584;28;20491;-45
2021/05/03 12:30:41;;;;;;;4.47;3.73;;;18.00;38.30;;;;;;4989477;28;20496;-46
2021/05/03 12:33:18;;;;;;;3.90;3.43;;;18.10;38.00;;;;;;5007072;28;20443;-45
2021/05/03 12:35:54;;;;;;;5.87;3.40;;;18.20;36.70;;;;;;5005032;28;20449;-45
2021/05/03 12:38:28;;;;;;;3.83;3.23;;;18.20;36.20;;;;;;5006450;28;20471;-46
2021/05/03 12:40:59;;;;;;;5.33;3.90;;;18.30;35.40;;;;;;5009177;28;20851;-45
2021/05/03 12:46:13;;;;;;;3.60;3.30;;;18.40;34.60;;;;;;5012629;28;20468;-46
2021/05/03 12:48:57;;;;;;;4.37;3.97;;;18.10;35.70;;;;;;5018967;28;20910;-45
2021/05/03 12:56:43;;;;;;;3.23;2.90;;;17.80;35.50;;;;;;5017174;28;20451;-45
2021/05/03 12:59:28;;;;;;;4.47;3.80;;;17.70;36.70;;;;;;5004990;28;20494;-45
2021/05/03 13:30:02;;;;;;;5.10;3.60;;;16.90;36.40;;;;;;5017829;28;20559;-45
2021/05/03 13:32:31;;;;;;;3.50;3.10;;;16.90;36.50;;;;;;5013201;28;20456;-45
2021/05/03 13:34:59;;;;;;;3.90;3.50;;;17.00;37.90;;;;;;5013597;28;20503;-45
2021/05/03 13:37:26;;;;;;;3.63;3.33;;;17.10;38.40;;;;;;5014897;28;20875;-43
2021/05/03 13:40:07;;;;;;;4.03;3.70;;;17.10;38.00;;;;;;5008660;28;20464;-45
2021/05/03 13:42:33;;;;;;;3.77;3.43;;;17.10;38.40;;;;;;5012230;28;20471;-43
2021/05/03 13:45:00;;;;;;;4.33;3.80;;;17.00;38.30;;;;;;5012217;28;20460;-44
2021/05/03 13:47:30;;;;;;;3.97;3.50;;;17.00;38.90;;;;;;5007026;28;20484;-44
2021/05/03 13:49:58;;;;;;;4.63;3.40;;;16.90;38.60;;;;;;5006228;28;20473;-44
2021/05/03 13:52:24;;;;;;;3.77;3.40;;;16.90;37.80;;;;;;5015063;28;20459;-43
2021/05/03 13:54:50;;;;;;;5.57;4.37;;;16.80;37.40;;;;;;5015621;28;20460;-46
2021/05/03 13:57:17;;;;;;;4.73;4.00;;;16.80;38.20;;;;;;5018483;28;20488;-45
2021/05/03 13:59:44;;;;;;;4.00;3.70;;;16.70;38.90;;;;;;5015692;28;20457;-45
2021/05/03 14:02:10;;;;;;;4.67;3.20;;;16.80;39.60;;;;;;5010173;28;20499;-46
2021/05/03 14:04:37;;;;;;;4.07;3.70;;;17.00;39.10;;;;;;5014884;28;20483;-45
2021/05/03 14:07:04;;;;;;;4.43;3.30;;;17.20;39.30;;;;;;5015651;28;20594;-45